Time;durP1;ratioP1;P1;durP2;ratioP2;P2;SDS_P1;SDS_P2;PMS_P1;PMS_P2;Temp;Humidity;BMP_temperature;BMP_pressure;BME280_temperature;BME280_humidity;BME280_pressure;Samples;Min_cycle;Max_cycle;Signal;HPM_P1;HPM_P2
2023/12/09 00:01:07;;;;;;;11.83;5.00;;;6.80;99.90;;;;;;5094468;28;20261;-78
2023/12/09 00:03:32;;;;;;;15.87;5.30;;;6.80;99.90;;;;;;5095604;28;20186;-79
2023/12/09 00:05:58;;;;;;;13.53;4.83;;;6.80;99.90;;;;;;5111521;28;20182;-79
2023/12/09 00:08:24;;;;;;;10.80;5.07;;;6.80;99.90;;;;;;5111377;28;20519;-78
2023/12/09 00:10:49;;;;;;;9.83;5.27;;;6.80;99.90;;;;;;5095512;28;20170;-79
2023/12/09 00:13:16;;;;;;;19.17;5.20;;;6.80;99.90;;;;;;5094335;28;20555;-77
2023/12/09 00:15:41;;;;;;;16.40;5.30;;;6.90;99.90;;;;;;5095659;28;20642;-79
2023/12/09 00:18:07;;;;;;;10.53;4.90;;;6.80;99.90;;;;;;5095531;28;20257;-79
2023/12/09 00:20:33;;;;;;;10.37;5.10;;;6.80;99.90;;;;;;5095861;28;20174;-78
2023/12/09 00:22:58;;;;;;;11.50;5.27;;;6.80;99.90;;;;;;5110886;28;20577;-78
2023/12/09 00:25:24;;;;;;;13.83;5.30;;;6.80;99.90;;;;;;5095847;28;20170;-79
2023/12/09 00:27:49;;;;;;;14.17;5.50;;;6.80;99.90;;;;;;5093957;28;20184;-78
2023/12/09 00:30:15;;;;;;;16.40;5.03;;;6.80;99.90;;;;;;5111213;28;20261;-78
2023/12/09 00:32:40;;;;;;;15.80;5.43;;;6.80;99.90;;;;;;5095537;28;20206;-79
2023/12/09 00:35:07;;;;;;;15.00;5.57;;;6.80;99.90;;;;;;5095294;28;20173;-80
2023/12/09 00:37:32;;;;;;;12.97;5.27;;;6.80;99.90;;;;;;5111039;28;20197;-78
2023/12/09 00:39:58;;;;;;;9.70;5.20;;;6.80;99.90;;;;;;5095158;28;20166;-78
2023/12/09 00:42:24;;;;;;;10.73;4.90;;;6.80;99.90;;;;;;5093625;28;20171;-77
2023/12/09 00:44:49;;;;;;;12.60;5.03;;;6.70;99.90;;;;;;5093578;28;20177;-78
2023/12/09 00:47:15;;;;;;;14.80;4.87;;;6.80;99.90;;;;;;5092358;28;20193;-78
2023/12/09 00:49:40;;;;;;;11.57;4.37;;;6.70;99.90;;;;;;5092009;28;20203;-78
2023/12/09 00:52:06;;;;;;;18.00;4.40;;;6.70;99.90;;;;;;5093697;28;20194;-79
2023/12/09 00:54:31;;;;;;;13.60;4.70;;;6.70;99.90;;;;;;5109776;28;20640;-78
2023/12/09 00:56:57;;;;;;;11.17;4.47;;;6.70;99.90;;;;;;5093814;28;20186;-78
2023/12/09 00:59:22;;;;;;;14.43;4.30;;;6.70;99.90;;;;;;5094228;28;20166;-78
2023/12/09 01:01:48;;;;;;;10.90;5.03;;;6.60;99.90;;;;;;5094682;28;20182;-78
2023/12/09 01:04:13;;;;;;;13.13;5.00;;;6.60;99.90;;;;;;5092674;28;20256;-78
2023/12/09 01:06:39;;;;;;;10.73;4.13;;;6.60;99.90;;;;;;5109702;28;20247;-78
2023/12/09 01:09:04;;;;;;;17.30;4.63;;;6.60;99.90;;;;;;5109781;28;20221;-78
2023/12/09 01:11:30;;;;;;;12.93;4.40;;;6.50;99.90;;;;;;5092812;28;20185;-78
2023/12/09 01:13:55;;;;;;;11.03;3.97;;;6.50;99.90;;;;;;5094551;28;20223;-78
2023/12/09 01:16:21;;;;;;;12.33;4.20;;;6.50;99.90;;;;;;5092827;28;20190;-79
2023/12/09 01:18:46;;;;;;;15.30;5.03;;;6.50;99.90;;;;;;5092460;28;20250;-76
2023/12/09 01:21:12;;;;;;;11.73;4.70;;;6.50;99.90;;;;;;5093150;28;20162;-78
2023/12/09 01:23:39;;;;;;;12.63;4.80;;;6.50;99.90;;;;;;5094294;28;20174;-78
2023/12/09 01:26:06;;;;;;;7.97;3.57;;;6.50;99.90;;;;;;5093270;28;20228;-78
2023/12/09 01:28:32;;;;;;;12.10;4.27;;;6.50;99.90;;;;;;5092910;28;20174;-79
2023/12/09 01:30:58;;;;;;;12.97;4.50;;;6.50;99.90;;;;;;5094026;28;20243;-78
2023/12/09 01:33:23;;;;;;;16.40;4.63;;;6.50;99.90;;;;;;5109344;28;20205;-79
2023/12/09 01:35:48;;;;;;;10.33;4.27;;;6.50;99.90;;;;;;5092727;28;20261;-78
2023/12/09 01:38:14;;;;;;;12.57;4.33;;;6.50;99.90;;;;;;5093445;28;20170;-79
2023/12/09 01:40:40;;;;;;;13.50;4.20;;;6.50;99.90;;;;;;5093939;28;20238;-79
2023/12/09 01:43:09;;;;;;;14.23;4.07;;;6.50;99.90;;;;;;5094416;28;20257;-78
2023/12/09 01:45:35;;;;;;;14.37;4.20;;;6.50;99.90;;;;;;5093983;28;20197;-79
2023/12/09 01:48:01;;;;;;;16.87;3.87;;;6.50;99.90;;;;;;5109478;28;20182;-78
2023/12/09 01:50:28;;;;;;;10.23;4.27;;;6.50;99.90;;;;;;5093010;28;20175;-78
2023/12/09 01:52:54;;;;;;;12.70;3.73;;;6.40;99.90;;;;;;5094216;28;20198;-78
2023/12/09 01:55:20;;;;;;;13.73;4.07;;;6.40;99.90;;;;;;5094415;28;20166;-78
2023/12/09 01:57:45;;;;;;;7.40;3.13;;;6.40;99.90;;;;;;5094188;28;20249;-79
2023/12/09 02:00:12;;;;;;;14.70;3.90;;;6.40;99.90;;;;;;5109677;28;20170;-78
2023/12/09 02:02:38;;;;;;;13.67;3.90;;;6.40;99.90;;;;;;5092763;28;20634;-78
2023/12/09 02:05:05;;;;;;;12.43;3.83;;;6.40;99.90;;;;;;5092419;28;20203;-79
2023/12/09 02:07:31;;;;;;;14.30;3.77;;;6.30;99.90;;;;;;5092696;28;20307;-79
2023/12/09 02:09:56;;;;;;;11.47;3.67;;;6.30;99.90;;;;;;5093505;28;20467;-80
2023/12/09 02:12:48;;;;;;;11.53;3.80;;;6.30;99.90;;;;;;5089510;28;20198;-78
2023/12/09 02:15:53;;;;;;;6.90;3.67;;;6.30;99.90;;;;;;5073898;28;20692;-79
2023/12/09 02:18:20;;;;;;;10.60;3.83;;;6.40;99.90;;;;;;5042246;28;20208;-79
2023/12/09 02:20:45;;;;;;;10.97;3.70;;;6.40;99.90;;;;;;5072611;28;20182;-79
2023/12/09 02:23:12;;;;;;;22.50;4.70;;;6.40;99.90;;;;;;5071216;28;20175;-78
2023/12/09 02:25:38;;;;;;;15.00;4.37;;;6.40;99.90;;;;;;5072153;28;20226;-78
2023/12/09 02:28:25;;;;;;;13.17;3.90;;;6.40;99.90;;;;;;5072581;28;20228;-78
2023/12/09 02:31:15;;;;;;;15.80;3.80;;;6.40;99.90;;;;;;5071463;28;20191;-78
2023/12/09 02:33:43;;;;;;;11.00;4.27;;;6.40;99.90;;;;;;5072598;28;20273;-78
2023/12/09 02:36:09;;;;;;;15.60;4.13;;;6.30;99.90;;;;;;5074391;28;20674;-78
2023/12/09 02:38:37;;;;;;;17.40;3.50;;;6.30;99.90;;;;;;5077003;28;20175;-79
2023/12/09 02:41:05;;;;;;;9.17;3.03;;;6.30;99.90;;;;;;5077080;28;20186;-78
2023/12/09 02:43:31;;;;;;;12.87;3.67;;;6.30;99.90;;;;;;5077173;28;20174;-78
2023/12/09 02:45:56;;;;;;;9.87;3.30;;;6.20;99.90;;;;;;5077233;28;20260;-78
2023/12/09 02:48:23;;;;;;;16.33;4.23;;;6.20;99.90;;;;;;5076733;28;20179;-77
2023/12/09 02:50:48;;;;;;;12.37;3.33;;;6.20;99.90;;;;;;5077092;28;20265;-79
2023/12/09 02:53:14;;;;;;;10.47;3.20;;;6.20;99.90;;;;;;5076932;28;20291;-78
2023/12/09 02:55:40;;;;;;;9.13;3.37;;;6.20;99.90;;;;;;5076148;28;20195;-78
2023/12/09 02:58:05;;;;;;;9.77;3.43;;;6.10;99.90;;;;;;5077359;28;20174;-79
2023/12/09 03:00:31;;;;;;;9.00;3.00;;;6.20;99.90;;;;;;5077136;28;20191;-78
2023/12/09 03:02:56;;;;;;;12.93;3.57;;;6.10;99.90;;;;;;5076016;28;20206;-79
2023/12/09 03:05:22;;;;;;;11.70;3.43;;;6.10;99.90;;;;;;5075922;28;20186;-79
2023/12/09 03:07:47;;;;;;;13.20;3.27;;;6.10;99.90;;;;;;5077078;28;20193;-78
2023/12/09 03:10:13;;;;;;;15.73;3.47;;;6.10;99.90;;;;;;5077026;28;20198;-78
2023/12/09 03:12:38;;;;;;;15.27;3.33;;;6.10;99.90;;;;;;5076706;28;20210;-78
2023/12/09 03:15:05;;;;;;;13.57;3.30;;;6.10;99.90;;;;;;5077115;28;20167;-78
2023/12/09 03:17:35;;;;;;;7.83;3.27;;;6.10;99.90;;;;;;5075633;28;20274;-79
2023/12/09 03:20:01;;;;;;;13.67;2.90;;;6.00;99.90;;;;;;5075746;28;20262;-78
2023/12/09 03:22:26;;;;;;;12.20;3.23;;;6.00;99.90;;;;;;5077056;28;20575;-78
2023/12/09 03:24:52;;;;;;;9.63;3.20;;;6.00;99.90;;;;;;5075049;28;20646;-78
2023/12/09 03:27:17;;;;;;;16.27;4.20;;;6.00;99.90;;;;;;5076410;28;20209;-78
2023/12/09 03:29:43;;;;;;;12.00;3.53;;;6.00;99.90;;;;;;5076446;28;20182;-78
2023/12/09 03:32:08;;;;;;;8.93;3.20;;;6.00;99.90;;;;;;5075333;28;20202;-79
2023/12/09 03:34:34;;;;;;;11.33;3.63;;;6.00;99.90;;;;;;5076902;28;20704;-79
2023/12/09 03:36:59;;;;;;;10.03;3.10;;;6.00;99.90;;;;;;5076449;28;20222;-78
2023/12/09 03:39:25;;;;;;;12.40;3.33;;;6.00;99.90;;;;;;5074884;28;20167;-79
2023/12/09 03:41:50;;;;;;;13.70;3.60;;;6.00;99.90;;;;;;5076098;28;20162;-79
2023/12/09 03:44:16;;;;;;;13.43;2.87;;;6.00;99.90;;;;;;5076594;28;20252;-78
2023/12/09 03:46:41;;;;;;;15.80;3.47;;;6.00;99.90;;;;;;5073989;28;20674;-79
2023/12/09 03:49:07;;;;;;;12.20;3.53;;;6.00;99.90;;;;;;5074956;28;20531;-79
2023/12/09 03:51:32;;;;;;;13.70;3.60;;;5.90;99.90;;;;;;5074872;28;20243;-79
2023/12/09 03:53:59;;;;;;;15.63;3.50;;;5.90;99.90;;;;;;5074719;28;20198;-78
2023/12/09 03:56:24;;;;;;;9.00;3.50;;;6.00;99.90;;;;;;5074723;28;20198;-78
2023/12/09 03:58:50;;;;;;;20.33;4.17;;;5.90;99.90;;;;;;5076667;28;20167;-78
2023/12/09 04:01:16;;;;;;;17.53;4.30;;;6.00;99.90;;;;;;5075871;28;20166;-78
2023/12/09 04:03:41;;;;;;;16.97;4.13;;;5.90;99.90;;;;;;5074762;28;20530;-79
2023/12/09 04:06:07;;;;;;;13.67;3.93;;;5.90;99.90;;;;;;5075911;28;20269;-79
2023/12/09 04:08:32;;;;;;;13.57;4.13;;;5.90;99.90;;;;;;5075685;28;20671;-79
2023/12/09 04:10:58;;;;;;;9.47;2.70;;;5.90;99.90;;;;;;5074115;28;20174;-78
2023/12/09 04:13:23;;;;;;;11.23;3.50;;;5.90;99.90;;;;;;5074548;28;20285;-79
2023/12/09 04:15:49;;;;;;;15.03;3.87;;;5.90;99.90;;;;;;5075908;28;20222;-79
2023/12/09 04:18:15;;;;;;;14.60;3.50;;;6.00;99.90;;;;;;5075809;28;20178;-79
2023/12/09 04:20:41;;;;;;;20.43;3.70;;;6.00;99.90;;;;;;5076513;28;20734;-78
2023/12/09 04:23:06;;;;;;;18.07;3.90;;;6.00;99.90;;;;;;5075172;28;20198;-79
2023/12/09 04:25:32;;;;;;;11.67;3.63;;;6.10;99.90;;;;;;5076533;28;20174;-79
2023/12/09 04:27:57;;;;;;;12.53;3.73;;;6.10;99.90;;;;;;5074895;28;20182;-79
2023/12/09 04:30:23;;;;;;;15.67;3.57;;;6.10;99.90;;;;;;5076552;28;20183;-79
2023/12/09 04:32:49;;;;;;;11.53;3.60;;;6.10;99.90;;;;;;5076680;28;20239;-78
2023/12/09 04:35:15;;;;;;;11.97;3.23;;;6.10;99.90;;;;;;5076556;28;20177;-79
2023/12/09 04:37:40;;;;;;;17.40;4.30;;;6.10;99.90;;;;;;5076929;28;20601;-79
2023/12/09 04:40:13;;;;;;;10.73;3.20;;;6.10;99.90;;;;;;5088132;28;20229;-78
2023/12/09 04:42:39;;;;;;;13.80;3.80;;;6.10;99.90;;;;;;5086985;28;20165;-79
2023/12/09 04:45:05;;;;;;;12.40;3.43;;;6.20;99.90;;;;;;5074280;28;20695;-78
2023/12/09 04:47:32;;;;;;;13.30;4.37;;;6.10;99.90;;;;;;5072134;28;20194;-77
2023/12/09 04:49:57;;;;;;;15.50;4.03;;;6.10;99.90;;;;;;5073273;28;20174;-79
2023/12/09 04:52:23;;;;;;;15.77;3.97;;;6.10;99.90;;;;;;5074172;28;20198;-77
2023/12/09 04:54:49;;;;;;;16.40;3.67;;;6.10;99.90;;;;;;5076607;28;20170;-78
2023/12/09 04:57:14;;;;;;;10.67;3.43;;;6.10;99.90;;;;;;5077218;28;20201;-78
2023/12/09 04:59:40;;;;;;;19.70;4.40;;;6.10;99.90;;;;;;5075066;28;20178;-79
2023/12/09 05:02:06;;;;;;;15.47;4.00;;;6.00;99.90;;;;;;5075387;28;20183;-78
2023/12/09 05:04:31;;;;;;;12.70;3.60;;;6.00;99.90;;;;;;5073630;28;20175;-78
2023/12/09 05:06:57;;;;;;;8.57;3.07;;;6.00;99.90;;;;;;5073647;28;20285;-79
2023/12/09 05:09:22;;;;;;;13.60;5.17;;;5.90;99.90;;;;;;5074887;28;20181;-79
2023/12/09 05:11:48;;;;;;;10.77;3.63;;;5.90;99.90;;;;;;5073428;28;20263;-79
2023/12/09 05:14:14;;;;;;;15.77;4.80;;;5.90;99.90;;;;;;5076968;28;20662;-79
2023/12/09 05:16:39;;;;;;;13.07;4.17;;;5.90;99.90;;;;;;5073163;28;20187;-79
2023/12/09 05:19:08;;;;;;;13.13;4.23;;;5.90;99.90;;;;;;5073332;28;20171;-78
2023/12/09 05:21:34;;;;;;;14.10;4.00;;;5.90;99.90;;;;;;5074871;28;20167;-78
2023/12/09 05:23:59;;;;;;;13.83;4.00;;;5.80;99.90;;;;;;5074716;28;20181;-79
2023/12/09 05:26:27;;;;;;;14.03;3.60;;;5.80;99.90;;;;;;5074594;28;20198;-78
2023/12/09 05:28:54;;;;;;;13.93;4.17;;;5.80;99.90;;;;;;5074488;28;20274;-78
2023/12/09 05:31:20;;;;;;;11.83;3.70;;;5.80;99.90;;;;;;5073457;28;20198;-79
2023/12/09 05:33:46;;;;;;;8.27;3.73;;;5.70;99.90;;;;;;5074730;28;20269;-79
2023/12/09 05:36:12;;;;;;;11.80;4.13;;;5.70;99.90;;;;;;5074550;28;20677;-79
2023/12/09 05:38:38;;;;;;;12.27;3.73;;;5.70;99.90;;;;;;5073513;28;20256;-80
2023/12/09 05:41:06;;;;;;;12.37;3.97;;;5.70;99.90;;;;;;5074906;28;20167;-80
2023/12/09 05:43:32;;;;;;;12.10;3.50;;;5.60;99.90;;;;;;5073672;28;20175;-78
2023/12/09 05:45:58;;;;;;;9.97;3.93;;;5.60;99.90;;;;;;5073838;28;20692;-79
2023/12/09 05:48:23;;;;;;;13.87;3.80;;;5.60;99.90;;;;;;5075148;28;20174;-79
2023/12/09 05:50:49;;;;;;;13.67;3.70;;;5.60;99.90;;;;;;5073403;28;20174;-78
2023/12/09 05:53:15;;;;;;;11.33;4.00;;;5.60;99.90;;;;;;5072961;28;20201;-79
2023/12/09 05:55:40;;;;;;;13.40;3.93;;;5.60;99.90;;;;;;5073450;28;20262;-79
2023/12/09 05:58:06;;;;;;;15.37;4.77;;;5.60;99.90;;;;;;5075828;28;20214;-79
2023/12/09 06:00:31;;;;;;;12.87;4.27;;;5.60;99.90;;;;;;5073831;28;20170;-80
2023/12/09 06:02:57;;;;;;;11.70;4.23;;;5.60;99.90;;;;;;5075215;28;20167;-79
2023/12/09 06:05:23;;;;;;;12.07;4.43;;;5.50;99.90;;;;;;5073355;28;20590;-80
2023/12/09 06:07:48;;;;;;;13.73;4.03;;;5.60;99.90;;;;;;5074413;28;20170;-79
2023/12/09 06:10:14;;;;;;;16.07;4.63;;;5.50;99.90;;;;;;5074392;28;20171;-80
2023/12/09 06:12:40;;;;;;;15.43;4.23;;;5.50;99.90;;;;;;5077351;28;20206;-79
2023/12/09 06:15:06;;;;;;;13.43;4.63;;;5.50;99.90;;;;;;5078561;28;20179;-79
2023/12/09 06:17:32;;;;;;;14.13;4.80;;;5.50;99.90;;;;;;5078489;28;20561;-80
2023/12/09 06:19:58;;;;;;;12.73;4.57;;;5.50;99.90;;;;;;5077029;28;20175;-80
2023/12/09 06:22:23;;;;;;;10.23;4.67;;;5.50;99.90;;;;;;5077846;28;20557;-79
2023/12/09 06:24:49;;;;;;;12.60;4.33;;;5.50;99.90;;;;;;5074868;28;20182;-78
2023/12/09 06:27:14;;;;;;;17.40;4.50;;;5.50;99.90;;;;;;5074684;28;20186;-78
2023/12/09 06:29:40;;;;;;;10.17;4.13;;;5.50;99.90;;;;;;5075226;28;20210;-78
2023/12/09 06:32:06;;;;;;;11.53;4.43;;;5.50;99.90;;;;;;5075309;28;20215;-79
2023/12/09 06:34:31;;;;;;;13.10;4.40;;;5.50;99.90;;;;;;5075848;28;20262;-79
2023/12/09 06:36:57;;;;;;;12.77;4.17;;;5.50;99.90;;;;;;5076996;28;20216;-79
2023/12/09 06:39:22;;;;;;;14.17;4.43;;;5.60;99.90;;;;;;5076302;28;20269;-79
2023/12/09 06:41:48;;;;;;;10.53;4.67;;;5.60;99.90;;;;;;5076826;28;20221;-79
2023/12/09 06:44:14;;;;;;;9.67;3.70;;;5.60;99.90;;;;;;5079577;28;20183;-80
2023/12/09 06:46:40;;;;;;;10.00;4.13;;;5.70;99.90;;;;;;5080128;28;20267;-80
2023/12/09 06:49:06;;;;;;;15.07;4.80;;;5.70;99.90;;;;;;5079548;28;20224;-79
2023/12/09 06:51:32;;;;;;;9.63;4.03;;;5.70;99.90;;;;;;5078723;28;20167;-79
2023/12/09 06:53:57;;;;;;;14.23;5.17;;;5.70;99.90;;;;;;5079206;28;20194;-79
2023/12/09 06:56:23;;;;;;;10.17;3.80;;;5.70;99.90;;;;;;5081770;28;20210;-78
2023/12/09 06:58:49;;;;;;;10.90;3.97;;;5.70;99.90;;;;;;5076971;28;20269;-79
2023/12/09 07:01:22;;;;;;;7.60;3.50;;;5.70;99.90;;;;;;5076921;28;20194;-78
2023/12/09 07:03:48;;;;;;;9.73;3.73;;;5.70;99.90;;;;;;5076705;28;20179;-79
2023/12/09 07:06:16;;;;;;;7.70;3.73;;;5.70;99.90;;;;;;5077134;28;20191;-78
2023/12/09 07:08:43;;;;;;;7.43;3.70;;;5.70;99.90;;;;;;5076761;28;20182;-79
2023/12/09 07:11:09;;;;;;;9.03;3.17;;;5.70;99.90;;;;;;5077261;28;20203;-78
2023/12/09 07:13:35;;;;;;;8.80;3.07;;;5.70;99.90;;;;;;5077032;28;20198;-78
2023/12/09 07:16:00;;;;;;;6.67;3.20;;;5.70;99.90;;;;;;5076345;28;20648;-78
2023/12/09 07:18:26;;;;;;;8.07;3.43;;;5.70;99.90;;;;;;5074298;28;20285;-76
2023/12/09 07:20:51;;;;;;;8.47;2.87;;;5.70;99.90;;;;;;5073887;28;20175;-77
2023/12/09 07:23:17;;;;;;;9.03;2.80;;;5.70;99.90;;;;;;5074847;28;20190;-78
2023/12/09 07:25:43;;;;;;;7.87;2.97;;;5.70;99.90;;;;;;5074390;28;20682;-78
2023/12/09 07:28:08;;;;;;;10.73;3.60;;;5.80;99.90;;;;;;5076022;28;20221;-77
2023/12/09 07:30:34;;;;;;;7.97;3.13;;;5.80;99.90;;;;;;5075248;28;20533;-78
2023/12/09 07:33:00;;;;;;;8.60;3.10;;;5.80;99.90;;;;;;5073876;28;20198;-77
2023/12/09 07:35:25;;;;;;;7.23;3.13;;;5.80;99.90;;;;;;5073921;28;20178;-78
2023/12/09 07:37:51;;;;;;;8.50;3.03;;;5.80;99.90;;;;;;5075517;28;20606;-77
2023/12/09 07:40:16;;;;;;;9.87;3.40;;;5.80;99.90;;;;;;5075535;28;20167;-78
2023/12/09 07:42:42;;;;;;;8.03;2.50;;;5.90;99.90;;;;;;5075501;28;20181;-78
2023/12/09 07:45:08;;;;;;;4.57;2.43;;;5.80;99.90;;;;;;5075332;28;20700;-78
2023/12/09 07:47:34;;;;;;;11.53;3.20;;;5.90;99.90;;;;;;5073636;28;20578;-78
2023/12/09 07:49:59;;;;;;;10.77;3.20;;;5.90;99.90;;;;;;5073942;28;20258;-77
2023/12/09 07:52:24;;;;;;;11.10;3.00;;;5.90;99.90;;;;;;5073960;28;20217;-78
2023/12/09 07:54:50;;;;;;;12.07;2.70;;;5.90;99.90;;;;;;5074906;28;20635;-77
2023/12/09 07:57:15;;;;;;;7.63;2.93;;;5.90;99.90;;;;;;5074002;28;20683;-79
2023/12/09 07:59:41;;;;;;;7.63;2.63;;;6.00;99.90;;;;;;5088100;28;20261;-76
2023/12/09 08:02:06;;;;;;;10.93;2.40;;;6.00;99.90;;;;;;5094038;28;20178;-77
2023/12/09 08:04:32;;;;;;;9.77;2.70;;;6.00;99.90;;;;;;5092711;28;20664;-77
2023/12/09 08:06:57;;;;;;;8.97;2.37;;;6.00;99.90;;;;;;5094135;28;20190;-77
2023/12/09 08:09:23;;;;;;;6.47;2.20;;;6.00;99.90;;;;;;5094209;28;20320;-77
2023/12/09 08:11:49;;;;;;;8.57;2.47;;;6.10;99.90;;;;;;5088797;28;20698;-77
2023/12/09 08:14:14;;;;;;;9.17;2.97;;;6.10;99.90;;;;;;5093150;28;20657;-77
2023/12/09 08:16:40;;;;;;;6.03;2.60;;;6.10;99.90;;;;;;5092551;28;20220;-77
2023/12/09 08:19:05;;;;;;;11.57;2.37;;;6.10;99.90;;;;;;5094119;28;20232;-77
2023/12/09 08:21:37;;;;;;;7.33;2.10;;;6.20;99.90;;;;;;5093673;28;20603;-77
2023/12/09 08:24:03;;;;;;;8.90;2.30;;;6.20;99.90;;;;;;5093724;28;20193;-77
2023/12/09 08:26:28;;;;;;;6.80;2.27;;;6.30;99.90;;;;;;5092338;28;20665;-77
2023/12/09 08:28:55;;;;;;;9.07;2.37;;;6.30;99.90;;;;;;5093963;28;20178;-77
2023/12/09 08:31:20;;;;;;;10.07;2.20;;;6.30;99.90;;;;;;5093598;28;20186;-77
2023/12/09 08:33:46;;;;;;;12.73;2.97;;;6.40;99.90;;;;;;5092442;28;20251;-77
2023/12/09 08:36:11;;;;;;;7.87;2.47;;;6.40;99.90;;;;;;5092113;28;20186;-77
2023/12/09 08:38:37;;;;;;;6.10;1.97;;;6.40;99.90;;;;;;5093690;28;20162;-77
2023/12/09 08:41:03;;;;;;;7.00;2.40;;;6.50;99.90;;;;;;5092132;28;20178;-77
2023/12/09 08:43:28;;;;;;;8.07;2.30;;;6.40;99.90;;;;;;5093986;28;20579;-77
2023/12/09 08:45:54;;;;;;;6.80;2.00;;;6.50;99.90;;;;;;5091974;28;20230;-77
2023/12/09 08:48:19;;;;;;;9.60;2.30;;;6.50;99.90;;;;;;5093376;28;20261;-77
2023/12/09 08:50:45;;;;;;;10.77;2.17;;;6.60;99.90;;;;;;5093801;28;20590;-77
2023/12/09 08:53:10;;;;;;;6.47;2.00;;;6.50;99.90;;;;;;5093897;28;20198;-78
2023/12/09 08:55:36;;;;;;;7.07;2.43;;;6.50;99.90;;;;;;5094014;28;20641;-78
2023/12/09 08:58:01;;;;;;;9.10;2.73;;;6.60;99.90;;;;;;5092352;28;20202;-77
2023/12/09 09:00:27;;;;;;;11.07;2.20;;;6.60;99.90;;;;;;5093014;28;20606;-78
2023/12/09 09:02:55;;;;;;;11.07;2.40;;;6.60;99.90;;;;;;5092269;28;20177;-77
2023/12/09 09:05:22;;;;;;;7.03;2.20;;;6.70;99.90;;;;;;5093354;28;20167;-77
2023/12/09 09:07:48;;;;;;;9.73;2.80;;;6.70;99.90;;;;;;5093698;28;20170;-77
2023/12/09 09:10:14;;;;;;;7.60;2.27;;;6.70;99.90;;;;;;5093785;28;20666;-77
2023/12/09 09:12:39;;;;;;;10.27;2.30;;;6.80;99.90;;;;;;5091975;28;20198;-78
2023/12/09 09:15:06;;;;;;;8.57;2.20;;;6.70;99.90;;;;;;5093359;28;20192;-77
2023/12/09 09:17:32;;;;;;;5.50;2.23;;;6.80;99.90;;;;;;5093329;28;20189;-77
2023/12/09 09:19:58;;;;;;;5.53;2.00;;;6.80;99.90;;;;;;5093398;28;20169;-78
2023/12/09 09:22:23;;;;;;;6.97;1.93;;;6.80;99.90;;;;;;5091861;28;20259;-78
2023/12/09 09:24:49;;;;;;;10.47;2.40;;;6.80;99.90;;;;;;5093259;28;20178;-77
2023/12/09 09:27:14;;;;;;;9.83;2.50;;;6.90;99.90;;;;;;5091810;28;20247;-78
2023/12/09 09:29:40;;;;;;;8.00;2.10;;;6.90;99.90;;;;;;5093016;28;20660;-78
2023/12/09 09:32:07;;;;;;;10.50;2.63;;;7.00;99.90;;;;;;5092078;28;20189;-80
2023/12/09 09:34:33;;;;;;;9.13;2.03;;;7.00;99.90;;;;;;5096418;28;20189;-79
2023/12/09 09:36:59;;;;;;;6.93;2.10;;;7.00;99.90;;;;;;5095446;28;20201;-78
2023/12/09 09:39:24;;;;;;;7.17;2.10;;;7.10;99.90;;;;;;5094166;28;20174;-78
2023/12/09 09:42:16;;;;;;;6.20;2.27;;;7.20;99.90;;;;;;5095897;28;20177;-79
2023/12/09 09:45:05;;;;;;;7.27;2.07;;;7.20;99.90;;;;;;5055194;28;20179;-78
2023/12/09 09:47:32;;;;;;;7.43;2.40;;;7.30;99.90;;;;;;5095792;28;20235;-77
2023/12/09 09:50:00;;;;;;;10.63;2.40;;;7.30;99.90;;;;;;5095371;28;20166;-79
2023/12/09 09:52:27;;;;;;;19.13;3.40;;;7.30;99.90;;;;;;5095892;28;20194;-79
2023/12/09 09:54:53;;;;;;;11.03;2.80;;;7.30;99.90;;;;;;5096832;28;20549;-79
2023/12/09 09:57:20;;;;;;;10.47;2.30;;;7.40;99.90;;;;;;5096803;28;20201;-79
2023/12/09 09:59:47;;;;;;;11.20;2.33;;;7.50;99.90;;;;;;5104730;28;20234;-79
2023/12/09 10:02:15;;;;;;;6.97;2.57;;;7.40;99.90;;;;;;5107025;28;20205;-78
2023/12/09 10:04:40;;;;;;;8.57;2.33;;;7.50;99.90;;;;;;5106941;28;20189;-79
2023/12/09 10:07:06;;;;;;;6.10;2.10;;;7.50;99.90;;;;;;5105710;28;20186;-79
2023/12/09 10:09:33;;;;;;;7.97;2.27;;;7.50;99.90;;;;;;5097498;28;20171;-78
2023/12/09 10:11:58;;;;;;;10.80;2.27;;;7.50;99.90;;;;;;5097840;28;20177;-78
2023/12/09 10:14:24;;;;;;;10.00;2.17;;;7.50;99.90;;;;;;5094743;28;20196;-79
2023/12/09 10:16:51;;;;;;;11.87;2.37;;;7.50;99.90;;;;;;5097987;28;20231;-79
2023/12/09 10:19:17;;;;;;;8.70;2.03;;;7.50;99.90;;;;;;5095795;28;20177;-79
2023/12/09 10:21:43;;;;;;;10.57;2.40;;;7.50;99.90;;;;;;5095149;28;20174;-79
2023/12/09 10:24:08;;;;;;;6.90;2.60;;;7.60;99.90;;;;;;5095102;28;20525;-77
2023/12/09 10:26:34;;;;;;;10.77;2.47;;;7.60;99.90;;;;;;5094218;28;20738;-79
2023/12/09 10:29:00;;;;;;;8.20;2.30;;;7.60;99.90;;;;;;5094245;28;20265;-79
2023/12/09 10:31:28;;;;;;;8.10;2.27;;;7.60;99.90;;;;;;5095345;28;20575;-79
2023/12/09 10:33:53;;;;;;;9.07;2.60;;;7.60;99.90;;;;;;5094111;28;20377;-78
2023/12/09 10:36:19;;;;;;;19.23;3.00;;;7.60;99.90;;;;;;5093354;28;20190;-79
2023/12/09 10:38:44;;;;;;;11.27;2.53;;;7.70;99.90;;;;;;5094363;28;20187;-79
2023/12/09 10:41:16;;;;;;;9.03;2.60;;;7.70;99.90;;;;;;5094553;28;20167;-78
2023/12/09 10:43:41;;;;;;;12.03;2.53;;;7.70;99.90;;;;;;5092345;28;20182;-77
2023/12/09 10:46:08;;;;;;;9.37;2.80;;;7.70;99.90;;;;;;5091871;28;20194;-78
2023/12/09 10:48:34;;;;;;;12.33;2.30;;;7.80;99.90;;;;;;5094017;28;20242;-78
2023/12/09 10:50:59;;;;;;;14.00;2.73;;;7.80;99.90;;;;;;5098379;28;20201;-78
2023/12/09 10:53:25;;;;;;;10.17;2.40;;;7.90;99.90;;;;;;5098475;28;20200;-78
2023/12/09 10:55:52;;;;;;;8.60;2.40;;;7.90;99.90;;;;;;5098515;28;20194;-78
2023/12/09 10:58:19;;;;;;;11.43;3.17;;;7.90;99.90;;;;;;5096757;28;20219;-78
2023/12/09 11:00:45;;;;;;;7.67;2.40;;;7.90;99.90;;;;;;5098038;28;20174;-78
2023/12/09 11:03:12;;;;;;;13.00;2.40;;;7.90;99.90;;;;;;5098546;28;20705;-79
2023/12/09 11:05:48;;;;;;;7.43;2.00;;;7.90;99.90;;;;;;5095721;28;20220;-78
2023/12/09 11:08:14;;;;;;;13.43;2.30;;;8.00;99.90;;;;;;5097039;28;20734;-78
2023/12/09 11:10:40;;;;;;;9.53;2.47;;;8.00;99.90;;;;;;5096856;28;20166;-78
2023/12/09 11:13:06;;;;;;;8.20;2.30;;;8.00;99.90;;;;;;5096828;28;20646;-78
2023/12/09 11:15:32;;;;;;;10.00;2.63;;;8.00;99.90;;;;;;5097240;28;20185;-78
2023/12/09 11:18:09;;;;;;;8.07;2.33;;;8.00;99.90;;;;;;5096708;28;20190;-78
2023/12/09 11:20:39;;;;;;;11.17;2.40;;;8.00;99.90;;;;;;5095478;28;20584;-78
2023/12/09 11:23:07;;;;;;;8.13;2.03;;;8.00;99.90;;;;;;5097262;28;20171;-78
2023/12/09 11:25:33;;;;;;;14.17;2.77;;;8.00;99.90;;;;;;5096602;28;20181;-78
2023/12/09 11:27:59;;;;;;;10.70;2.33;;;8.00;99.90;;;;;;5096588;28;20166;-78
2023/12/09 11:30:28;;;;;;;10.93;2.53;;;8.00;99.90;;;;;;5093869;28;20697;-79
2023/12/09 11:32:54;;;;;;;9.97;2.60;;;8.00;99.90;;;;;;5093107;28;20198;-78
2023/12/09 11:35:20;;;;;;;12.43;2.40;;;8.00;99.90;;;;;;5093661;28;20274;-79
2023/12/09 11:37:49;;;;;;;11.10;2.77;;;8.10;99.90;;;;;;5092563;28;20247;-79
2023/12/09 11:40:15;;;;;;;7.33;2.60;;;8.10;99.90;;;;;;5092712;28;20263;-79
2023/12/09 11:42:41;;;;;;;15.50;2.50;;;8.30;99.90;;;;;;5093562;28;20178;-79
2023/12/09 11:45:08;;;;;;;11.90;2.90;;;8.10;99.90;;;;;;5094544;28;20628;-80
2023/12/09 11:47:34;;;;;;;8.53;2.53;;;8.10;99.90;;;;;;5094652;28;20187;-78
2023/12/09 11:50:00;;;;;;;8.10;2.23;;;8.10;99.90;;;;;;5096140;28;20175;-78
2023/12/09 11:52:26;;;;;;;12.03;2.57;;;8.10;99.90;;;;;;5095808;28;20204;-78
2023/12/09 11:55:02;;;;;;;8.47;2.77;;;8.20;99.90;;;;;;5094614;28;20169;-78
2023/12/09 11:57:29;;;;;;;13.07;2.90;;;8.10;99.90;;;;;;5094221;28;20281;-78
2023/12/09 11:59:55;;;;;;;9.63;2.53;;;8.20;99.90;;;;;;5094106;28;20585;-78
2023/12/09 12:02:20;;;;;;;10.60;2.50;;;8.20;99.90;;;;;;5095491;28;20182;-78
2023/12/09 12:04:46;;;;;;;8.20;2.27;;;8.30;99.90;;;;;;5094665;28;20256;-78
2023/12/09 12:07:12;;;;;;;13.00;3.43;;;8.30;99.90;;;;;;5094783;28;20701;-77
2023/12/09 12:09:38;;;;;;;11.40;2.63;;;8.30;99.90;;;;;;5094842;28;20249;-77
2023/12/09 12:12:05;;;;;;;10.17;2.17;;;8.40;99.90;;;;;;5092736;28;20193;-77
2023/12/09 12:14:31;;;;;;;8.83;2.17;;;8.30;99.90;;;;;;5094032;28;20276;-78
2023/12/09 12:17:01;;;;;;;7.30;2.27;;;8.40;99.90;;;;;;5094718;28;20255;-77
2023/12/09 12:19:27;;;;;;;7.10;2.37;;;8.40;99.90;;;;;;5094150;28;20174;-80
2023/12/09 12:21:53;;;;;;;9.20;2.77;;;8.40;99.90;;;;;;5095870;28;20175;-80
2023/12/09 12:24:19;;;;;;;13.17;2.40;;;8.40;99.90;;;;;;5095730;28;20178;-80
2023/12/09 12:26:44;;;;;;;13.47;2.53;;;8.40;99.90;;;;;;5098128;28;20239;-79
2023/12/09 12:29:16;;;;;;;10.23;2.73;;;8.40;99.90;;;;;;5100599;28;20174;-79
2023/12/09 12:31:42;;;;;;;10.63;2.53;;;8.40;99.90;;;;;;5100440;28;20273;-79
2023/12/09 12:34:17;;;;;;;12.17;2.67;;;8.40;99.90;;;;;;5098686;28;20213;-80
2023/12/09 12:36:52;;;;;;;11.10;2.23;;;8.50;99.90;;;;;;5099493;28;20545;-79
2023/12/09 12:39:18;;;;;;;10.03;2.57;;;8.50;99.90;;;;;;5099081;28;20241;-79
2023/12/09 12:41:44;;;;;;;6.77;2.37;;;8.50;99.90;;;;;;5096913;28;20661;-79
2023/12/09 12:44:11;;;;;;;12.13;2.30;;;8.50;99.90;;;;;;5096384;28;20166;-79
2023/12/09 12:46:37;;;;;;;7.40;2.40;;;8.50;99.90;;;;;;5096451;28;20194;-78